Time;durP1;ratioP1;P1;durP2;ratioP2;P2;SDS_P1;SDS_P2;PMS_P1;PMS_P2;Temp;Humidity;BMP_temperature;BMP_pressure;BME280_temperature;BME280_humidity;BME280_pressure;Samples;Min_cycle;Max_cycle;Signal;HPM_P1;HPM_P2
2022/05/14 00:00:28;;;;;;;13.55;3.45;;;;;;;12.25;73.18;100578.69;4977673;28;20026;-75
2022/05/14 00:02:55;;;;;;;6.28;3.08;;;;;;;12.27;74.24;100583.94;4957963;28;20042;-76
2022/05/14 00:05:23;;;;;;;5.30;3.13;;;;;;;12.22;74.54;100588.22;4957981;28;20033;-75
2022/05/14 00:07:50;;;;;;;4.05;2.75;;;;;;;12.24;74.86;100590.59;4958053;28;20081;-78
2022/05/14 00:10:17;;;;;;;4.88;3.10;;;;;;;12.22;74.11;100596.00;4973996;28;20042;-76
2022/05/14 00:15:26;;;;;;;5.88;2.60;;;;;;;12.14;74.25;100584.13;4974194;28;20073;-76
2022/05/14 00:17:54;;;;;;;3.88;2.78;;;;;;;12.10;73.91;100590.03;4957756;28;20050;-78
2022/05/14 00:20:20;;;;;;;6.25;2.88;;;;;;;12.07;74.57;100593.06;4957883;28;20077;-75
2022/05/14 00:22:45;;;;;;;4.88;2.88;;;;;;;12.09;74.65;100597.00;4957748;28;20129;-76
2022/05/14 00:25:10;;;;;;;4.38;3.15;;;;;;;12.08;74.90;100595.44;4957658;28;20026;-76
2022/05/14 00:27:41;;;;;;;6.57;2.92;;;;;;;12.08;74.58;100601.16;4975058;28;20026;-76
2022/05/14 00:30:07;;;;;;;6.68;3.40;;;;;;;12.02;74.59;100597.38;4957684;28;20030;-76
2022/05/14 00:32:33;;;;;;;3.90;3.38;;;;;;;12.00;74.67;100602.75;4941553;28;20026;-75
2022/05/14 00:34:58;;;;;;;4.55;2.60;;;;;;;11.98;74.34;100599.59;4957526;28;20022;-74
2022/05/14 00:37:23;;;;;;;2.85;2.65;;;;;;;11.89;74.24;100585.34;4957506;28;20100;-76
2022/05/14 00:39:49;;;;;;;6.78;2.78;;;;;;;11.89;73.95;100605.31;4957550;28;20026;-76
2022/05/14 00:42:14;;;;;;;3.95;3.20;;;;;;;11.74;75.19;100597.94;4973887;28;20093;-75
2022/05/14 00:44:39;;;;;;;4.13;2.97;;;;;;;11.75;75.90;100602.34;4957412;28;20026;-75
2022/05/14 00:47:10;;;;;;;3.33;2.55;;;;;;;11.75;75.95;100608.84;4974866;28;20061;-75
2022/05/14 00:49:35;;;;;;;4.20;3.20;;;;;;;11.68;76.11;100607.13;4957283;28;20031;-75
2022/05/14 00:52:02;;;;;;;5.20;2.95;;;;;;;11.64;75.67;100615.03;4973500;28;20030;-75
2022/05/14 00:54:35;;;;;;;3.08;2.78;;;;;;;11.64;75.79;100622.84;4957208;28;20047;-75
2022/05/14 00:57:05;;;;;;;5.25;3.08;;;;;;;11.67;75.86;100616.16;4958209;28;20042;-74
2022/05/14 00:59:31;;;;;;;5.50;3.28;;;;;;;11.56;75.35;100613.00;4957858;28;20061;-75
2022/05/14 01:01:58;;;;;;;3.65;2.80;;;;;;;11.61;75.78;100613.16;4973551;28;20026;-76
2022/05/14 01:04:24;;;;;;;5.78;2.83;;;;;;;11.56;75.92;100608.09;4941372;28;20022;-76
2022/05/14 01:06:59;;;;;;;5.10;3.05;;;;;;;11.51;77.31;100599.38;4941579;28;20031;-76
2022/05/14 01:09:25;;;;;;;4.15;3.15;;;;;;;11.52;77.25;100600.97;4975031;28;20019;-76
2022/05/14 01:11:51;;;;;;;4.80;2.85;;;;;;;11.46;76.37;100589.41;4957494;28;20062;-76
2022/05/14 01:14:17;;;;;;;5.45;3.78;;;;;;;11.51;77.35;100602.22;4941434;28;20068;-75
2022/05/14 01:16:42;;;;;;;5.43;3.50;;;;;;;11.52;76.95;100604.63;4941310;28;20022;-75
2022/05/14 01:19:10;;;;;;;5.60;3.25;;;;;;;11.36;76.98;100581.34;4957145;28;20498;-75
2022/05/14 01:21:59;;;;;;;12.77;3.40;;;;;;;11.50;77.43;100603.50;4973501;28;20035;-75
2022/05/14 01:27:51;;;;;;;4.18;3.10;;;;;;;11.39;77.74;100583.25;4943505;29;20087;-75
2022/05/14 01:30:17;;;;;;;3.97;3.20;;;;;;;11.40;78.20;100591.31;4930671;29;20024;-75
2022/05/14 01:32:45;;;;;;;4.07;3.17;;;;;;;11.33;78.08;100588.00;4929849;28;20035;-76
2022/05/14 01:35:15;;;;;;;7.13;3.28;;;;;;;11.32;78.31;100592.91;4942317;28;20027;-74
2022/05/14 01:37:40;;;;;;;4.80;3.05;;;;;;;11.22;78.39;100575.03;4942593;28;20026;-75
2022/05/14 01:40:06;;;;;;;6.45;3.15;;;;;;;11.23;78.63;100582.31;4974848;28;20357;-75
2022/05/14 01:42:32;;;;;;;7.25;4.40;;;;;;;11.20;79.41;100583.25;4941463;28;20029;-75
2022/05/14 01:44:57;;;;;;;5.30;3.53;;;;;;;11.21;79.00;100586.91;4956834;28;20384;-76
2022/05/14 01:47:23;;;;;;;4.50;3.85;;;;;;;11.20;79.20;100577.56;4957196;28;20073;-76
2022/05/14 01:49:48;;;;;;;4.55;3.50;;;;;;;11.21;79.61;100584.06;4957267;28;20026;-75
2022/05/14 01:52:14;;;;;;;4.38;3.35;;;;;;;11.19;79.32;100586.59;4973373;28;20097;-78
2022/05/14 01:54:39;;;;;;;4.68;2.90;;;;;;;11.13;79.61;100575.03;4953650;29;20043;-77
2022/05/14 01:57:05;;;;;;;5.28;3.25;;;;;;;11.17;80.11;100583.44;4969822;28;20031;-76
2022/05/14 01:59:30;;;;;;;4.18;2.83;;;;;;;11.08;79.69;100569.19;4969979;28;20058;-75
2022/05/14 02:01:56;;;;;;;3.83;3.42;;;;;;;11.09;79.13;100571.56;4953602;28;20384;-76
2022/05/14 02:04:21;;;;;;;8.55;3.45;;;;;;;10.94;79.42;100555.59;4969765;28;20026;-76
2022/05/14 02:06:46;;;;;;;5.00;3.70;;;;;;;11.09;79.81;100585.03;4937876;29;20031;-78
2022/05/14 02:09:13;;;;;;;4.93;3.50;;;;;;;11.07;80.70;100596.91;4969750;28;20030;-76
2022/05/14 02:11:41;;;;;;;7.30;3.35;;;;;;;10.89;80.79;100564.75;4955053;29;20030;-76
2022/05/14 02:14:07;;;;;;;3.67;3.22;;;;;;;10.94;80.25;100584.88;4957025;28;20031;-76
2022/05/14 02:16:33;;;;;;;4.85;3.30;;;;;;;10.85;80.89;100562.09;4957112;29;20122;-77
2022/05/14 02:18:58;;;;;;;4.35;3.00;;;;;;;10.96;80.60;100587.22;4957010;29;20039;-76
2022/05/14 02:21:24;;;;;;;5.72;3.22;;;;;;;10.92;80.36;100580.91;4956906;28;20033;-74
2022/05/14 02:23:51;;;;;;;3.85;3.20;;;;;;;10.96;79.62;100585.19;4956727;28;20037;-76
2022/05/14 02:26:17;;;;;;;5.38;3.03;;;;;;;10.81;80.16;100550.81;4973058;28;20433;-75
2022/05/14 02:28:42;;;;;;;4.63;2.78;;;;;;;10.85;79.57;100572.69;4956745;29;20031;-76
2022/05/14 02:31:08;;;;;;;5.75;3.10;;;;;;;10.70;79.53;100547.69;4956782;28;20465;-77
2022/05/14 02:33:34;;;;;;;4.90;2.85;;;;;;;10.70;80.37;100550.53;4972794;28;20031;-76
2022/05/14 02:36:00;;;;;;;6.40;3.10;;;;;;;10.72;79.81;100559.38;4957882;28;20062;-76
2022/05/14 02:38:27;;;;;;;3.83;3.50;;;;;;;10.81;79.56;100567.13;4972792;28;20074;-76
2022/05/14 02:40:53;;;;;;;5.35;3.10;;;;;;;10.86;80.13;100582.78;4956592;28;20050;-76
2022/05/14 02:43:19;;;;;;;3.50;2.67;;;;;;;10.80;79.96;100576.97;4940431;29;20503;-76
2022/05/14 02:45:44;;;;;;;3.72;3.10;;;;;;;10.66;79.94;100557.63;4940450;29;20023;-77
2022/05/14 02:48:10;;;;;;;3.63;2.90;;;;;;;10.68;80.26;100561.59;4956353;28;20035;-76
2022/05/14 02:50:36;;;;;;;3.20;2.88;;;;;;;10.77;80.58;100575.03;4972259;28;20039;-77
2022/05/14 02:53:02;;;;;;;3.53;2.83;;;;;;;10.77;80.32;100566.50;4940067;29;20038;-75
2022/05/14 02:55:27;;;;;;;3.30;2.60;;;;;;;10.72;80.25;100567.91;4955792;29;20054;-75
2022/05/14 02:57:53;;;;;;;4.28;2.80;;;;;;;10.73;81.18;100565.88;4956090;29;20054;-75
2022/05/14 03:00:19;;;;;;;5.38;3.00;;;;;;;10.79;80.05;100564.78;4972479;28;20381;-75
2022/05/14 03:02:45;;;;;;;4.85;2.67;;;;;;;10.85;80.76;100564.13;4959171;28;20441;-74
2022/05/14 03:05:12;;;;;;;4.65;3.22;;;;;;;10.87;80.64;100568.09;4943346;29;20038;-75
2022/05/14 03:07:39;;;;;;;2.97;2.53;;;;;;;10.81;80.14;100556.53;4940785;29;20031;-74
2022/05/14 03:10:05;;;;;;;5.63;3.22;;;;;;;10.93;79.70;100573.94;4955961;28;20123;-75
2022/05/14 03:12:30;;;;;;;4.50;3.33;;;;;;;10.88;80.00;100569.66;4972039;28;20058;-75
2022/05/14 03:14:55;;;;;;;5.70;2.63;;;;;;;10.98;80.06;100565.56;4955879;29;20031;-75
2022/05/14 03:17:21;;;;;;;3.88;3.30;;;;;;;11.02;79.82;100563.34;4957288;29;20425;-76
2022/05/14 03:19:47;;;;;;;5.60;2.90;;;;;;;10.91;80.02;100530.88;4955919;29;20059;-76
2022/05/14 03:22:12;;;;;;;3.10;2.60;;;;;;;11.01;80.21;100556.03;4956055;29;20035;-76
2022/05/14 03:24:38;;;;;;;3.13;2.42;;;;;;;11.08;79.45;100563.50;4957095;28;20114;-76
2022/05/14 03:27:04;;;;;;;2.92;2.60;;;;;;;11.08;79.15;100552.09;4955854;29;20027;-75
2022/05/14 03:29:29;;;;;;;4.20;2.53;;;;;;;11.18;79.27;100563.00;4955559;28;20042;-76
2022/05/14 03:31:57;;;;;;;4.97;2.97;;;;;;;11.24;79.27;100558.25;4955756;28;20031;-76
2022/05/14 03:34:23;;;;;;;3.78;2.67;;;;;;;11.17;79.37;100541.47;4955465;28;20089;-75
2022/05/14 03:36:48;;;;;;;5.90;3.03;;;;;;;11.29;79.20;100556.03;4971433;28;20035;-75
2022/05/14 03:39:14;;;;;;;5.97;2.50;;;;;;;11.41;78.66;100555.81;4955415;28;20027;-75
2022/05/14 03:41:39;;;;;;;2.85;2.50;;;;;;;11.48;78.15;100563.25;4956753;28;20102;-77
2022/05/14 03:44:05;;;;;;;5.03;2.47;;;;;;;11.53;77.78;100552.00;4956584;29;20480;-74
2022/05/14 03:46:31;;;;;;;7.50;2.65;;;;;;;11.52;77.82;100541.84;4955322;29;20035;-74
2022/05/14 03:48:56;;;;;;;2.88;2.67;;;;;;;11.63;78.26;100547.06;4971300;28;20066;-75
2022/05/14 03:51:21;;;;;;;7.43;3.53;;;;;;;11.70;77.61;100560.97;4955128;29;20034;-75
2022/05/14 03:53:47;;;;;;;6.45;2.80;;;;;;;11.76;77.12;100561.94;4956380;29;20034;-73
2022/05/14 03:56:13;;;;;;;5.70;2.38;;;;;;;11.87;77.37;100565.06;4954952;29;20059;-74
2022/05/14 03:58:38;;;;;;;3.55;2.42;;;;;;;11.91;76.94;100562.03;4956980;29;20027;-76
2022/05/14 04:01:04;;;;;;;9.73;2.53;;;;;;;12.09;76.64;100576.22;4955379;29;20031;-75
2022/05/14 04:03:32;;;;;;;5.50;2.92;;;;;;;12.17;76.51;100576.69;4938810;29;20117;-75
2022/05/14 04:05:58;;;;;;;3.22;2.72;;;;;;;12.24;75.88;100582.81;4939054;29;20507;-76
2022/05/14 04:08:23;;;;;;;5.35;3.00;;;;;;;12.31;76.19;100573.09;4957788;28;20443;-76
2022/05/14 04:10:49;;;;;;;3.38;3.08;;;;;;;12.16;75.15;100550.19;4957932;28;20026;-75
2022/05/14 04:13:14;;;;;;;6.38;3.05;;;;;;;12.27;75.05;100556.16;4957218;28;20034;-75
2022/05/14 04:15:40;;;;;;;2.97;2.55;;;;;;;12.50;75.25;100574.56;4974080;28;20027;-75
2022/05/14 04:18:05;;;;;;;4.53;3.35;;;;;;;12.54;74.78;100566.59;4973996;28;20082;-76
2022/05/14 04:20:31;;;;;;;4.57;2.90;;;;;;;12.50;74.89;100546.00;4957830;28;20450;-76
2022/05/14 04:22:57;;;;;;;5.07;2.35;;;;;;;12.79;74.42;100571.81;4973836;28;20034;-76
2022/05/14 04:25:23;;;;;;;4.13;2.30;;;;;;;12.81;74.79;100571.34;4974028;28;20019;-76
2022/05/14 04:27:48;;;;;;;3.85;2.60;;;;;;;12.84;74.09;100556.84;4957816;28;20487;-76
2022/05/14 04:30:15;;;;;;;3.05;2.85;;;;;;;12.87;74.16;100557.97;4975117;28;20031;-75
2022/05/14 04:32:40;;;;;;;4.82;2.50;;;;;;;13.04;73.95;100570.50;4974703;28;20031;-75
2022/05/14 04:35:06;;;;;;;3.38;2.47;;;;;;;13.09;73.84;100555.53;4973672;28;20042;-75
2022/05/14 04:37:33;;;;;;;2.83;2.45;;;;;;;13.25;73.45;100562.88;4957032;28;20035;-75
2022/05/14 04:39:59;;;;;;;4.25;2.50;;;;;;;13.34;73.13;100559.94;4957604;28;20023;-75
2022/05/14 04:42:25;;;;;;;3.25;2.45;;;;;;;13.47;72.85;100563.28;4973312;28;20501;-76
2022/05/14 04:44:50;;;;;;;2.90;2.00;;;;;;;13.46;72.13;100555.22;4973673;28;20448;-76
2022/05/14 04:47:16;;;;;;;3.45;1.88;;;;;;;13.59;72.80;100555.69;4973377;28;20467;-76
2022/05/14 04:49:47;;;;;;;7.07;2.20;;;;;;;13.67;72.47;100560.53;4957480;28;20487;-76
2022/05/14 04:52:12;;;;;;;3.05;2.13;;;;;;;13.82;71.16;100575.63;4974713;28;20038;-75
2022/05/14 04:54:38;;;;;;;2.75;1.70;;;;;;;13.83;70.75;100556.38;4973286;28;20039;-75
2022/05/14 04:57:05;;;;;;;4.57;2.20;;;;;;;14.03;71.15;100561.38;4975121;28;20384;-76
2022/05/14 04:59:31;;;;;;;4.20;2.10;;;;;;;14.10;70.02;100543.78;4974656;28;20023;-76
2022/05/14 05:04:44;;;;;;;3.75;1.77;;;;;;;14.34;68.86;100550.13;4973895;28;20129;-75
2022/05/14 05:07:09;;;;;;;2.28;2.05;;;;;;;14.26;69.14;100529.69;4973378;28;20515;-75
2022/05/14 05:09:35;;;;;;;3.22;2.03;;;;;;;14.50;68.64;100540.22;4975009;28;20031;-74
2022/05/14 05:12:00;;;;;;;3.53;2.30;;;;;;;14.78;68.74;100558.56;4974687;28;20037;-74
2022/05/14 05:14:26;;;;;;;3.17;2.03;;;;;;;14.89;68.15;100549.31;4956915;28;20027;-74
2022/05/14 05:16:51;;;;;;;2.50;2.30;;;;;;;15.16;67.97;100563.19;4973613;28;20030;-77
2022/05/14 05:19:18;;;;;;;4.10;2.20;;;;;;;15.29;67.35;100545.59;4974063;28;20041;-78
2022/05/14 05:21:44;;;;;;;4.00;2.45;;;;;;;15.57;66.79;100560.25;4974475;28;20023;-75
2022/05/14 05:24:10;;;;;;;2.47;1.80;;;;;;;15.82;64.90;100560.22;4956886;28;20360;-76
2022/05/14 05:26:36;;;;;;;2.20;1.45;;;;;;;16.02;63.84;100567.16;4973090;28;20031;-75
2022/05/14 05:29:03;;;;;;;3.00;1.70;;;;;;;16.17;63.10;100562.06;4957453;28;20038;-77
2022/05/14 05:31:29;;;;;;;6.22;1.63;;;;;;;16.31;62.21;100566.84;4974289;28;20109;-75
2022/05/14 05:33:55;;;;;;;3.15;1.58;;;;;;;16.43;60.88;100560.66;4974905;28;20444;-75
2022/05/14 05:36:20;;;;;;;1.73;1.40;;;;;;;16.70;61.49;100561.34;4976871;28;20026;-76
2022/05/14 05:38:46;;;;;;;2.40;1.65;;;;;;;16.84;59.69;100563.25;4977704;28;20046;-74
2022/05/14 05:41:11;;;;;;;1.70;1.30;;;;;;;17.04;58.80;100577.47;4978526;28;20023;-75
2022/05/14 05:43:36;;;;;;;3.38;1.25;;;;;;;17.20;59.00;100550.81;4978348;28;20023;-73
2022/05/14 05:46:02;;;;;;;3.53;1.27;;;;;;;17.44;57.86;100564.75;4958331;28;20457;-73
2022/05/14 05:48:28;;;;;;;2.05;1.05;;;;;;;17.68;56.35;100561.41;4977422;28;20051;-73
2022/05/14 05:50:53;;;;;;;1.80;1.20;;;;;;;17.92;55.36;100560.88;4978182;28;20058;-74
2022/05/14 05:53:20;;;;;;;1.90;1.10;;;;;;;18.23;54.89;100565.59;4978071;28;20034;-77
2022/05/14 05:58:31;;;;;;;3.95;1.52;;;;;;;18.93;53.27;100577.50;4978395;28;20041;-78
2022/05/14 06:00:57;;;;;;;2.58;1.20;;;;;;;19.11;51.81;100569.53;4978472;28;20075;-76
2022/05/14 06:03:22;;;;;;;5.85;1.40;;;;;;;19.43;49.04;100567.81;4977824;28;20023;-77
2022/05/14 06:05:47;;;;;;;2.67;1.27;;;;;;;19.82;50.38;100577.03;4976100;28;20045;-78
2022/05/14 06:08:15;;;;;;;1.48;0.98;;;;;;;19.95;46.94;100581.38;4977509;28;20089;-78
2022/05/14 06:10:41;;;;;;;2.47;1.15;;;;;;;20.02;47.28;100581.59;4977918;28;20069;-77
2022/05/14 06:13:09;;;;;;;2.67;0.90;;;;;;;19.81;47.92;100578.34;4976643;28;20085;-77
2022/05/14 06:15:35;;;;;;;3.25;1.05;;;;;;;19.80;48.15;100585.44;4976421;28;20033;-80
2022/05/14 06:18:02;;;;;;;2.22;1.33;;;;;;;19.84;48.11;100597.50;4976523;28;20018;-79
2022/05/14 06:20:28;;;;;;;1.38;1.13;;;;;;;20.07;47.22;100591.53;4977334;28;20387;-77
2022/05/14 06:22:53;;;;;;;2.05;1.33;;;;;;;20.09;46.97;100592.56;4978016;28;20031;-77
2022/05/14 06:25:19;;;;;;;2.30;1.17;;;;;;;20.33;46.99;100596.84;4979556;28;20031;-77
2022/05/14 06:27:45;;;;;;;3.50;1.25;;;;;;;20.64;46.77;100599.94;4977748;28;20042;-77
2022/05/14 06:30:11;;;;;;;4.75;1.88;;;;;;;20.76;43.37;100597.72;4984045;28;20044;-79
2022/05/14 06:32:36;;;;;;;1.65;1.23;;;;;;;21.02;43.72;100602.94;4991612;28;20035;-77
2022/05/14 06:35:03;;;;;;;3.70;1.15;;;;;;;21.45;41.93;100595.03;4989931;28;20431;-76
2022/05/14 06:37:29;;;;;;;1.75;1.13;;;;;;;22.12;39.98;100596.94;4984404;28;20468;-75
2022/05/14 06:39:55;;;;;;;1.60;0.90;;;;;;;22.40;39.88;100594.31;4994947;28;20029;-80
2022/05/14 06:42:20;;;;;;;1.30;1.20;;;;;;;22.20;38.51;100602.88;4983259;28;20553;-78
2022/05/14 06:44:46;;;;;;;0.98;0.98;;;;;;;22.27;40.48;100596.41;4987939;28;20431;-78
2022/05/14 06:47:11;;;;;;;4.22;1.17;;;;;;;23.47;37.72;100593.81;4988736;28;20068;-76
2022/05/14 06:49:37;;;;;;;2.10;1.00;;;;;;;24.73;35.89;100590.38;4981317;28;20027;-75
2022/05/14 06:52:04;;;;;;;4.93;1.20;;;;;;;25.74;32.03;100582.41;4991456;28;20483;-74
2022/05/14 06:54:30;;;;;;;2.60;1.10;;;;;;;26.77;31.05;100585.81;4984524;28;20018;-74
2022/05/14 06:56:55;;;;;;;5.50;1.17;;;;;;;27.97;29.59;100589.69;4999023;28;20049;-76
2022/05/14 06:59:21;;;;;;;3.92;1.38;;;;;;;29.01;28.09;100584.97;5003065;28;20026;-77
2022/05/14 07:01:47;;;;;;;1.70;1.00;;;;;;;29.52;27.79;100593.75;5003386;28;20042;-76
2022/05/14 07:07:00;;;;;;;4.25;1.70;;;;;;;29.88;26.19;100577.63;4976472;28;20036;-77
2022/05/14 07:09:28;;;;;;;1.77;1.23;;;;;;;29.75;25.54;100569.94;5002965;28;20363;-77
2022/05/14 07:11:57;;;;;;;3.13;1.25;;;;;;;29.69;26.24;100572.41;5004328;28;20042;-78
2022/05/14 07:14:23;;;;;;;2.00;1.15;;;;;;;29.82;27.04;100571.22;4977971;28;20033;-77
2022/05/14 07:16:50;;;;;;;4.85;1.33;;;;;;;30.34;25.41;100569.66;4978579;28;20053;-77
2022/05/14 07:19:16;;;;;;;3.97;1.88;;;;;;;31.09;25.68;100563.06;4995760;28;20427;-77
2022/05/14 07:21:43;;;;;;;7.05;1.50;;;;;;;31.66;22.38;100559.34;4997440;28;20076;-77
2022/05/14 07:24:12;;;;;;;3.92;1.35;;;;;;;32.04;23.09;100558.47;5015535;28;20547;-78
2022/05/14 07:26:39;;;;;;;3.67;1.45;;;;;;;32.36;22.22;100554.97;5000385;28;20074;-77
2022/05/14 07:29:07;;;;;;;5.15;1.88;;;;;;;32.66;20.96;100553.41;4977899;28;20480;-77
2022/05/14 07:31:33;;;;;;;1.45;1.13;;;;;;;33.04;21.72;100543.50;4995682;28;20131;-81
2022/05/14 07:33:58;;;;;;;4.90;1.73;;;;;;;33.28;20.79;100548.16;5015097;28;20554;-80
2022/05/14 07:36:25;;;;;;;2.03;1.50;;;;;;;32.21;22.27;100545.72;5019788;28;20141;-79
2022/05/14 07:38:51;;;;;;;6.05;1.80;;;;;;;31.92;21.91;100545.78;4983516;28;20459;-80
2022/05/14 07:41:16;;;;;;;1.77;1.67;;;;;;;31.18;21.63;100554.22;4995181;28;20187;-81
2022/05/14 07:43:43;;;;;;;3.08;1.70;;;;;;;30.28;21.79;100547.81;4996054;28;20472;-80
2022/05/14 07:46:12;;;;;;;3.97;2.10;;;;;;;29.38;23.98;100550.69;4995724;28;20384;-78
2022/05/14 07:48:39;;;;;;;6.63;1.85;;;;;;;28.88;23.70;100547.91;4976788;28;20583;-77
2022/05/14 07:51:06;;;;;;;1.95;1.38;;;;;;;28.62;25.36;100552.25;4977373;28;20125;-75
2022/05/14 07:53:32;;;;;;;3.53;1.52;;;;;;;27.55;24.68;100547.75;4977123;28;20042;-76
2022/05/14 07:55:58;;;;;;;4.95;2.05;;;;;;;27.29;26.08;100543.16;4992662;28;20050;-77
2022/05/14 07:58:24;;;;;;;3.88;2.00;;;;;;;26.91;26.65;100549.16;4975443;28;20053;-79
2022/05/14 08:00:50;;;;;;;1.95;1.75;;;;;;;27.31;26.30;100540.44;4975379;28;20425;-78
2022/05/14 08:03:16;;;;;;;4.18;1.48;;;;;;;28.04;26.50;100541.97;4975266;28;20534;-78
2022/05/14 08:05:41;;;;;;;2.45;1.70;;;;;;;29.02;23.70;100536.63;4974875;28;20049;-77
2022/05/14 08:08:08;;;;;;;4.78;2.50;;;;;;;29.79;22.86;100540.16;4958441;28;20132;-77
2022/05/14 08:10:34;;;;;;;8.45;3.08;;;;;;;30.44;20.91;100529.28;4992720;28;20026;-77
2022/05/14 08:12:59;;;;;;;2.83;2.53;;;;;;;30.62;22.46;100535.88;4976324;28;20061;-78
2022/05/14 08:15:26;;;;;;;5.70;2.38;;;;;;;30.50;21.31;100531.19;4977448;28;20101;-77
2022/05/14 08:17:52;;;;;;;5.15;2.15;;;;;;;29.76;22.48;100532.53;4976560;28;20026;-78
2022/05/14 08:20:18;;;;;;;4.88;2.65;;;;;;;29.69;23.18;100540.09;4993148;28;20056;-79
2022/05/14 08:25:28;;;;;;;3.95;2.30;;;;;;;29.74;23.32;100533.16;4977813;28;20113;-77
2022/05/14 08:27:54;;;;;;;2.83;2.47;;;;;;;29.48;23.33;100530.97;4992617;28;20129;-77
2022/05/14 08:30:20;;;;;;;2.75;2.00;;;;;;;28.90;24.81;100541.47;4975050;28;20386;-76
2022/05/14 08:32:46;;;;;;;3.00;2.05;;;;;;;29.52;23.84;100532.09;4992393;28;20037;-76
2022/05/14 08:35:12;;;;;;;7.00;3.05;;;;;;;30.17;20.93;100525.66;4975776;28;20026;-77
2022/05/14 08:37:37;;;;;;;5.38;2.65;;;;;;;30.44;20.64;100523.41;4993383;28;20380;-78
2022/05/14 08:40:09;;;;;;;6.07;2.78;;;;;;;31.19;20.61;100525.56;4975769;28;20526;-77
2022/05/14 08:42:37;;;;;;;6.25;3.25;;;;;;;31.61;19.87;100525.09;4994052;28;20073;-78
2022/05/14 08:45:02;;;;;;;6.57;3.65;;;;;;;31.48;20.75;100517.47;4976809;28;20023;-77
2022/05/14 08:47:34;;;;;;;6.13;3.50;;;;;;;31.67;19.58;100517.47;4961044;28;20521;-77
2022/05/14 08:50:02;;;;;;;4.55;3.53;;;;;;;31.07;20.57;100524.66;4960732;28;20026;-78
2022/05/14 08:52:29;;;;;;;4.75;3.20;;;;;;;31.22;21.43;100509.63;4976829;28;20113;-77
2022/05/14 08:55:00;;;;;;;3.53;2.83;;;;;;;31.08;21.03;100524.03;4976732;28;20042;-78
2022/05/14 08:57:34;;;;;;;5.57;3.58;;;;;;;30.09;21.72;100533.84;4960609;28;20041;-77
2022/05/14 09:00:00;;;;;;;3.35;2.80;;;;;;;29.29;22.83;100533.75;4976583;28;20038;-77
2022/05/14 09:02:29;;;;;;;4.25;3.38;;;;;;;28.65;23.76;100536.41;4976601;28;20486;-77
2022/05/14 09:04:58;;;;;;;6.22;3.63;;;;;;;27.93;24.38;100524.88;4976507;28;20023;-77
2022/05/14 09:07:24;;;;;;;5.13;3.70;;;;;;;26.85;25.39;100528.09;4976778;28;20172;-77
2022/05/14 09:09:51;;;;;;;6.32;3.55;;;;;;;26.59;25.69;100535.94;4994419;28;20109;-78
2022/05/14 09:12:20;;;;;;;7.75;3.47;;;;;;;26.56;26.39;100531.28;4994374;28;20101;-78
2022/05/14 09:14:45;;;;;;;6.95;3.80;;;;;;;26.48;26.17;100532.66;4976621;28;20037;-78
2022/05/14 09:17:14;;;;;;;5.38;3.35;;;;;;;26.42;26.91;100535.00;4995337;28;20022;-80
2022/05/14 09:19:43;;;;;;;13.20;3.85;;;;;;;25.94;26.81;100531.84;4978576;28;20022;-78
2022/05/14 09:22:22;;;;;;;6.85;3.80;;;;;;;25.47;27.86;100535.19;4979217;28;20022;-78
2022/05/14 09:25:20;;;;;;;5.57;3.92;;;;;;;25.04;28.09;100529.41;5013963;28;20026;-78
2022/05/14 09:27:58;;;;;;;4.60;3.50;;;;;;;25.48;27.87;100524.31;4998780;28;20027;-78
2022/05/14 09:30:31;;;;;;;5.22;3.72;;;;;;;25.70;28.33;100517.81;4998795;28;20058;-79
2022/05/14 09:32:56;;;;;;;5.88;3.05;;;;;;;25.94;28.47;100511.41;5013274;28;20041;-78
2022/05/14 09:35:24;;;;;;;3.75;3.45;;;;;;;26.03;28.11;100516.66;4980941;28;20022;-79
2022/05/14 09:37:55;;;;;;;4.78;4.00;;;;;;;26.34;27.23;100526.25;5014047;28;20027;-79
2022/05/14 09:40:26;;;;;;;4.67;3.53;;;;;;;25.86;28.09;100509.81;5004637;28;20031;-78
2022/05/14 09:42:55;;;;;;;7.90;3.97;;;;;;;25.52;27.61;100505.06;4999052;28;20030;-78
2022/05/14 09:45:24;;;;;;;7.38;4.50;;;;;;;25.41;27.80;100513.41;4981286;28;20049;-80
2022/05/14 09:47:50;;;;;;;8.63;3.25;;;;;;;25.68;28.56;100511.75;4998953;28;20105;-80
2022/05/14 09:50:35;;;;;;;4.38;3.13;;;;;;;26.03;27.84;100513.75;4980875;28;20535;-78
2022/05/14 09:53:03;;;;;;;7.05;4.15;;;;;;;26.08;27.24;100501.09;4979772;28;20034;-78
2022/05/14 09:55:56;;;;;;;4.80;3.53;;;;;;;25.97;27.93;100504.38;4997846;28;20054;-77
2022/05/14 09:58:28;;;;;;;4.78;3.63;;;;;;;26.03;28.00;100510.81;4998033;28;20034;-77
2022/05/14 10:01:03;;;;;;;4.68;3.10;;;;;;;26.40;28.18;100506.34;4980532;28;20088;-78
2022/05/14 10:03:50;;;;;;;3.30;3.10;;;;;;;26.04;28.61;100480.28;4980648;28;20049;-80
2022/05/14 10:06:31;;;;;;;4.15;3.78;;;;;;;25.86;27.37;100492.31;4997465;28;20026;-77
2022/05/14 10:09:09;;;;;;;4.82;3.40;;;;;;;25.94;28.13;100499.72;4997449;28;20035;-77
2022/05/14 10:11:36;;;;;;;7.18;3.38;;;;;;;26.42;28.29;100480.25;4979821;28;20105;-78
2022/05/14 10:14:10;;;;;;;6.13;3.83;;;;;;;26.68;27.73;100478.25;4997507;28;20471;-77
2022/05/14 10:16:54;;;;;;;8.80;3.88;;;;;;;26.29;28.29;100491.38;4963571;28;20479;-77
2022/05/14 10:19:51;;;;;;;6.93;3.65;;;;;;;26.59;27.04;100486.25;4979627;28;20041;-77
2022/05/14 10:28:55;;;;;;;5.43;2.72;;;;;;;26.45;28.21;100484.91;4982788;28;20041;-77
2022/05/14 10:31:27;;;;;;;4.55;2.97;;;;;;;26.51;27.71;100488.41;4932661;28;20128;-77
2022/05/14 10:33:53;;;;;;;;;;;;;;;26.06;28.23;100471.69;4979192;28;20042;-78
2022/05/14 10:36:48;;;;;;;3.45;3.15;;;;;;;25.75;28.44;100476.72;4979141;28;19920;-77
2022/05/14 10:39:32;;;;;;;5.47;3.28;;;;;;;25.82;29.39;100489.00;4979778;28;20030;-77
2022/05/14 10:42:15;;;;;;;5.03;3.38;;;;;;;25.95;29.53;100430.44;4979130;28;20069;-77
2022/05/14 10:44:51;;;;;;;6.22;3.72;;;;;;;25.57;28.14;100474.19;4962899;28;20025;-77
2022/05/14 10:47:18;;;;;;;5.32;3.13;;;;;;;25.86;27.98;100481.41;4963147;28;20068;-77
2022/05/14 10:49:53;;;;;;;5.95;3.15;;;;;;;26.00;27.38;100467.44;4962961;28;20019;-77
2022/05/14 10:52:18;;;;;;;5.93;2.75;;;;;;;26.05;27.10;100475.22;4979307;28;20513;-78
2022/05/14 10:54:44;;;;;;;4.22;2.70;;;;;;;26.13;27.98;100464.28;4959450;28;20052;-78
2022/05/14 10:57:13;;;;;;;2.83;2.63;;;;;;;26.60;28.15;100460.72;4975955;28;20022;-78
2022/05/14 10:59:45;;;;;;;6.63;3.17;;;;;;;26.34;28.72;100458.28;4977020;28;20468;-78
2022/05/14 11:02:11;;;;;;;4.15;3.10;;;;;;;26.47;29.22;100478.50;4975593;28;20027;-77
2022/05/14 11:04:36;;;;;;;4.60;3.30;;;;;;;26.54;28.00;100478.47;4975281;28;20026;-77
2022/05/14 11:07:05;;;;;;;8.90;3.42;;;;;;;26.39;28.00;100475.59;4975542;28;20413;-77
2022/05/14 11:09:31;;;;;;;5.30;3.15;;;;;;;26.36;28.91;100465.06;4977062;28;20023;-79
2022/05/14 11:12:01;;;;;;;3.60;2.67;;;;;;;26.62;28.47;100469.69;4976738;28;20357;-77
2022/05/14 11:14:37;;;;;;;4.93;2.77;;;;;;;26.76;27.44;100473.16;4975772;28;20035;-78
2022/05/14 11:17:02;;;;;;;4.60;3.28;;;;;;;26.84;26.97;100468.06;4976699;28;20317;-77
2022/05/14 11:19:32;;;;;;;4.03;3.17;;;;;;;26.91;26.78;100476.06;4977145;28;20030;-77
2022/05/14 11:21:59;;;;;;;3.85;2.83;;;;;;;26.99;26.65;100462.16;4975465;28;20031;-77
2022/05/14 11:24:37;;;;;;;3.08;2.78;;;;;;;27.00;27.39;100470.38;4959529;28;20081;-77
2022/05/14 11:27:02;;;;;;;4.00;2.97;;;;;;;27.12;27.25;100459.00;4975267;28;20034;-77
2022/05/14 11:29:29;;;;;;;7.10;3.08;;;;;;;27.13;25.79;100456.88;4974863;28;20022;-77
2022/05/14 11:32:08;;;;;;;8.45;2.80;;;;;;;27.08;26.17;100461.56;4975047;28;20163;-76
2022/05/14 11:34:33;;;;;;;11.35;2.78;;;;;;;27.22;27.20;100453.31;4958794;28;20384;-78
2022/05/14 11:37:01;;;;;;;2.83;2.60;;;;;;;27.20;26.94;100448.03;4958866;28;20023;-78
2022/05/14 11:39:30;;;;;;;3.92;2.75;;;;;;;26.87;26.03;100464.00;4974976;28;20034;-76
2022/05/14 11:42:07;;;;;;;6.90;2.40;;;;;;;26.60;26.52;100467.34;4958620;28;20515;-78
2022/05/14 11:44:43;;;;;;;5.60;3.10;;;;;;;26.41;26.33;100466.22;4975107;28;20019;-77
2022/05/14 11:47:30;;;;;;;5.93;2.95;;;;;;;26.18;26.90;100466.22;4958889;28;20022;-77
2022/05/14 11:49:55;;;;;;;3.60;3.30;;;;;;;25.95;27.84;100465.47;4958854;28;20018;-77